Time;durP1;ratioP1;P1;durP2;ratioP2;P2;SDS_P1;SDS_P2;PMS_P1;PMS_P2;Temp;Humidity;BMP_temperature;BMP_pressure;BME280_temperature;BME280_humidity;BME280_pressure;Samples;Min_cycle;Max_cycle;Signal;HPM_P1;HPM_P2
2022/05/10 00:02:55;;;;;;;5.15;3.35;;;;;;;13.18;99.70;101149.66;6016123;29;20527;-93
2022/05/10 00:05:58;;;;;;;8.63;4.03;;;;;;;13.12;99.42;101141.41;6018787;29;20045;-92
2022/05/10 00:09:01;;;;;;;4.63;3.10;;;;;;;13.09;100.00;101141.66;6023249;29;20102;-93
2022/05/10 00:12:03;;;;;;;5.75;3.30;;;;;;;13.04;100.00;101146.41;6021505;29;20049;-92
2022/05/10 00:15:06;;;;;;;5.00;3.47;;;;;;;13.03;100.00;101149.09;6016042;29;20061;-93
2022/05/10 00:18:13;;;;;;;6.63;3.25;;;;;;;13.00;100.00;101144.16;6019642;29;20034;-93
2022/05/10 00:21:22;;;;;;;7.43;3.63;;;;;;;13.00;100.00;101134.59;6028215;29;20097;-92
2022/05/10 00:24:24;;;;;;;5.18;3.50;;;;;;;13.00;100.00;101131.97;6002147;29;20436;-92
2022/05/10 00:27:26;;;;;;;6.47;3.40;;;;;;;13.00;100.00;101128.56;6002879;29;20045;-92
2022/05/10 00:30:28;;;;;;;7.38;3.60;;;;;;;13.02;100.00;101129.25;6015135;29;20042;-92
2022/05/10 00:33:31;;;;;;;6.68;3.58;;;;;;;13.07;99.67;101120.16;6016667;29;20042;-93
2022/05/10 00:36:33;;;;;;;5.75;3.58;;;;;;;13.20;100.00;101117.38;6006433;29;20594;-93
2022/05/10 00:39:34;;;;;;;5.03;4.07;;;;;;;13.34;97.83;101121.50;6018168;29;20228;-92
2022/05/10 00:43:11;;;;;;;6.00;3.50;;;;;;;13.46;98.58;101104.88;6024280;29;20169;-93
2022/05/10 00:46:19;;;;;;;5.50;3.78;;;;;;;13.61;96.08;101109.78;6017594;29;20767;-93
2022/05/10 00:49:46;;;;;;;5.28;3.28;;;;;;;13.63;95.83;101105.28;5972613;29;20057;-92
2022/05/10 00:53:31;;;;;;;7.03;3.65;;;;;;;13.61;97.89;101094.19;6008515;29;20072;-92
2022/05/10 00:57:06;;;;;;;4.18;3.53;;;;;;;13.54;97.23;101089.50;5958644;29;20054;-92
2022/05/10 01:00:08;;;;;;;7.63;3.65;;;;;;;13.55;96.60;101082.53;5953521;29;20055;-92
2022/05/10 01:03:29;;;;;;;9.55;3.78;;;;;;;13.50;97.26;101080.28;5953708;29;20050;-93
2022/05/10 01:06:37;;;;;;;4.68;3.50;;;;;;;13.43;97.31;101073.13;5965594;29;20056;-93
2022/05/10 01:09:57;;;;;;;5.57;4.00;;;;;;;13.33;96.89;101073.88;5969160;29;20046;-93
2022/05/10 01:13:23;;;;;;;7.70;3.85;;;;;;;13.27;98.29;101061.38;5949472;29;20150;-93
2022/05/10 01:16:26;;;;;;;6.32;4.30;;;;;;;13.20;98.64;101067.19;5966975;29;20700;-92
2022/05/10 01:19:29;;;;;;;6.07;3.72;;;;;;;13.21;98.79;101048.03;5970964;29;20050;-93
2022/05/10 01:22:43;;;;;;;5.05;3.38;;;;;;;13.21;99.74;101050.63;5962270;29;20051;-93
2022/05/10 01:26:11;;;;;;;6.15;3.47;;;;;;;13.15;99.32;101041.56;5973070;29;20077;-92
2022/05/10 01:29:37;;;;;;;5.38;3.55;;;;;;;13.12;98.46;101049.63;5969410;29;20097;-92
2022/05/10 01:36:55;;;;;;;6.88;3.88;;;;;;;13.05;100.00;101045.84;6005190;29;20582;-92
2022/05/10 01:40:25;;;;;;;6.15;3.38;;;;;;;13.02;100.00;101033.94;6010940;29;20045;-92
2022/05/10 01:43:35;;;;;;;5.55;3.38;;;;;;;12.97;100.00;101032.63;6006719;29;20509;-93
2022/05/10 01:46:37;;;;;;;4.60;3.80;;;;;;;12.93;100.00;101032.91;6006563;29;20499;-92
2022/05/10 01:49:58;;;;;;;5.43;3.50;;;;;;;12.90;100.00;101027.13;5999693;29;20389;-92
2022/05/10 01:53:12;;;;;;;7.43;3.60;;;;;;;12.90;100.00;101032.34;6012477;29;20242;-93
2022/05/10 01:56:21;;;;;;;7.78;4.10;;;;;;;12.88;100.00;101021.22;6002543;29;20262;-92
2022/05/10 01:59:22;;;;;;;6.90;3.78;;;;;;;12.88;100.00;101023.81;6004732;29;20440;-92
2022/05/10 02:02:27;;;;;;;5.97;3.50;;;;;;;12.90;100.00;101027.94;6001945;29;20076;-93
2022/05/10 02:05:45;;;;;;;9.02;4.00;;;;;;;12.95;100.00;101029.38;6013206;29;20506;-92
2022/05/10 02:09:05;;;;;;;5.53;3.28;;;;;;;12.97;100.00;101025.69;5997761;29;20075;-93
2022/05/10 02:12:30;;;;;;;5.10;3.35;;;;;;;13.01;100.00;101029.66;6010632;29;20077;-93
2022/05/10 02:15:40;;;;;;;7.43;3.58;;;;;;;13.00;100.00;101028.03;6009889;29;20122;-92
2022/05/10 02:18:51;;;;;;;5.15;3.45;;;;;;;12.98;100.00;101018.72;6012227;29;20280;-92
2022/05/10 02:22:14;;;;;;;6.60;3.67;;;;;;;12.99;100.00;101025.53;6009086;29;20835;-93
2022/05/10 02:25:19;;;;;;;6.68;3.72;;;;;;;12.98;100.00;101021.31;6007385;29;20053;-93
2022/05/10 02:28:40;;;;;;;5.80;3.80;;;;;;;12.99;100.00;101020.34;6013870;29;20132;-92
2022/05/10 02:35:15;;;;;;;7.28;3.25;;;;;;;12.99;100.00;101022.94;6006774;29;19938;-92
2022/05/10 02:38:20;;;;;;;5.80;3.60;;;;;;;12.92;100.00;101012.25;6009653;29;20049;-92
2022/05/10 02:41:22;;;;;;;6.45;3.90;;;;;;;12.90;100.00;101006.34;6005262;29;20050;-92
2022/05/10 02:44:24;;;;;;;5.60;3.65;;;;;;;12.82;100.00;101001.78;6001485;29;20089;-93
2022/05/10 02:47:41;;;;;;;6.25;3.63;;;;;;;12.83;100.00;100997.41;6003786;29;20549;-93
2022/05/10 02:50:43;;;;;;;6.93;3.83;;;;;;;12.79;100.00;100985.59;6009889;29;20056;-92
2022/05/10 02:53:46;;;;;;;4.82;3.78;;;;;;;12.71;100.00;100994.81;5999929;29;20528;-92
2022/05/10 02:56:49;;;;;;;7.45;3.88;;;;;;;12.66;100.00;100983.97;5998338;29;20050;-92
2022/05/10 02:59:55;;;;;;;5.28;3.53;;;;;;;12.65;100.00;100984.94;6019238;29;20046;-92
2022/05/10 03:03:04;;;;;;;8.80;4.15;;;;;;;12.61;100.00;100978.34;6009610;29;20053;-92
2022/05/10 03:06:07;;;;;;;5.82;4.13;;;;;;;12.58;100.00;100978.59;6007881;29;20049;-92
2022/05/10 03:09:10;;;;;;;5.57;3.83;;;;;;;12.55;100.00;100973.66;6000079;29;20060;-92
2022/05/10 03:12:12;;;;;;;5.22;3.63;;;;;;;12.54;100.00;100971.97;5995371;29;20062;-93
2022/05/10 03:15:14;;;;;;;5.95;4.18;;;;;;;12.54;100.00;100968.56;6022980;29;20400;-93
2022/05/10 03:18:16;;;;;;;5.60;3.70;;;;;;;12.54;100.00;100963.38;5995919;29;20600;-92
2022/05/10 03:21:19;;;;;;;4.95;3.42;;;;;;;12.57;100.00;100961.38;6031458;29;20247;-92
2022/05/10 03:24:21;;;;;;;6.25;3.72;;;;;;;12.57;100.00;100953.56;6028818;29;20774;-92
2022/05/10 03:27:24;;;;;;;8.50;4.07;;;;;;;12.56;100.00;100961.47;6033003;29;20048;-92
2022/05/10 03:30:27;;;;;;;4.22;3.47;;;;;;;12.57;100.00;100961.38;6022744;29;20042;-92
2022/05/10 03:33:30;;;;;;;4.60;3.72;;;;;;;12.58;100.00;100972.56;6020882;29;20046;-92
2022/05/10 03:36:31;;;;;;;6.80;3.45;;;;;;;12.65;100.00;100964.16;6023114;29;20045;-92
2022/05/10 03:39:33;;;;;;;5.97;4.35;;;;;;;12.63;100.00;100958.25;6005839;29;20399;-92
2022/05/10 03:42:42;;;;;;;5.45;3.33;;;;;;;12.62;100.00;100958.38;6019807;29;20535;-92
2022/05/10 03:45:44;;;;;;;6.22;3.90;;;;;;;12.64;100.00;100951.28;6016567;29;20552;-92
2022/05/10 03:48:49;;;;;;;5.43;3.75;;;;;;;12.64;100.00;100957.31;6015188;29;20056;-92
2022/05/10 03:51:54;;;;;;;4.68;3.40;;;;;;;12.67;100.00;100951.88;6024279;29;20605;-92
2022/05/10 03:54:55;;;;;;;4.45;3.55;;;;;;;12.70;100.00;100949.03;6016468;29;20097;-92
2022/05/10 03:57:59;;;;;;;5.65;4.00;;;;;;;12.77;100.00;100943.31;6014295;29;20208;-92
2022/05/10 04:01:01;;;;;;;6.35;4.07;;;;;;;12.77;100.00;100941.56;6015791;29;20390;-93
2022/05/10 04:04:05;;;;;;;5.88;4.50;;;;;;;12.81;100.00;100942.94;6023151;29;20049;-93
2022/05/10 04:07:08;;;;;;;7.22;3.47;;;;;;;12.86;100.00;100945.19;6018513;29;20054;-92
2022/05/10 04:10:13;;;;;;;5.05;4.15;;;;;;;12.92;100.00;100950.69;6018414;29;20041;-93
2022/05/10 04:13:18;;;;;;;5.85;3.75;;;;;;;12.97;100.00;100955.53;6021276;29;20070;-92
2022/05/10 04:16:21;;;;;;;7.72;3.67;;;;;;;13.00;100.00;100951.84;6026807;29;20067;-92
2022/05/10 04:19:24;;;;;;;4.40;3.90;;;;;;;13.05;100.00;100942.72;6029829;29;20045;-92
2022/05/10 04:22:26;;;;;;;5.43;3.95;;;;;;;13.12;100.00;100948.25;6013795;29;20623;-93
2022/05/10 04:25:47;;;;;;;5.75;4.00;;;;;;;13.19;100.00;100946.78;6004734;29;20046;-92
2022/05/10 04:28:49;;;;;;;9.32;4.25;;;;;;;13.27;100.00;100943.56;6025149;29;20045;-93
2022/05/10 04:31:51;;;;;;;8.07;3.88;;;;;;;13.40;100.00;100951.97;6021318;29;20419;-93
2022/05/10 04:34:53;;;;;;;8.02;4.25;;;;;;;13.44;100.00;100950.78;6020166;29;20045;-92
2022/05/10 04:37:55;;;;;;;8.57;4.63;;;;;;;13.49;100.00;100943.41;6026227;29;20050;-92
2022/05/10 04:44:20;;;;;;;;;;;;;;;13.65;100.00;100945.53;6016143;29;20052;-93
2022/05/10 04:47:22;;;;;;;6.80;4.03;;;;;;;13.72;100.00;100948.44;6019726;29;20416;-93
2022/05/10 04:50:24;;;;;;;8.10;3.60;;;;;;;13.80;100.00;100946.00;6017071;29;20076;-93
2022/05/10 04:53:26;;;;;;;6.53;3.70;;;;;;;13.87;100.00;100949.72;6018710;29;20037;-93
2022/05/10 04:56:28;;;;;;;5.50;3.67;;;;;;;13.92;100.00;100946.72;6036128;29;20478;-93
2022/05/10 04:59:30;;;;;;;7.25;4.10;;;;;;;13.99;100.00;100946.06;6025638;29;20037;-92
2022/05/10 05:02:32;;;;;;;4.95;3.58;;;;;;;14.02;100.00;100944.97;5997588;29;20080;-93
2022/05/10 05:05:34;;;;;;;7.28;3.90;;;;;;;14.08;100.00;100943.59;6020772;29;20045;-93
2022/05/10 05:08:36;;;;;;;5.88;3.90;;;;;;;14.13;100.00;100952.66;6018874;29;20109;-92
2022/05/10 05:11:39;;;;;;;6.15;3.60;;;;;;;14.19;100.00;100951.31;6019802;29;20499;-93
2022/05/10 05:14:42;;;;;;;7.13;3.65;;;;;;;14.31;100.00;100946.78;6021726;29;20045;-93
2022/05/10 05:17:45;;;;;;;5.93;3.85;;;;;;;14.37;100.00;100949.69;6015542;29;20053;-93
2022/05/10 05:20:47;;;;;;;6.18;3.90;;;;;;;14.40;100.00;100946.81;6014743;29;21258;-92
2022/05/10 05:23:49;;;;;;;6.38;4.22;;;;;;;14.44;100.00;100942.16;6023957;29;20056;-92
2022/05/10 05:26:53;;;;;;;9.45;4.00;;;;;;;14.49;100.00;100947.78;6016925;29;20051;-92
2022/05/10 05:29:56;;;;;;;8.95;4.13;;;;;;;14.55;100.00;100946.44;6016990;29;20116;-92
2022/05/10 05:33:05;;;;;;;6.40;3.72;;;;;;;14.64;100.00;100948.22;6018365;29;20049;-93
2022/05/10 05:36:07;;;;;;;5.55;3.95;;;;;;;14.70;100.00;100945.06;6021392;29;20078;-92
2022/05/10 05:39:14;;;;;;;7.90;4.05;;;;;;;14.81;100.00;100954.53;6015114;29;20530;-93
2022/05/10 05:42:17;;;;;;;6.63;4.15;;;;;;;14.93;100.00;100952.59;6014014;29;20045;-92
2022/05/10 05:45:22;;;;;;;7.45;3.95;;;;;;;15.07;100.00;100958.19;6019193;29;20051;-93
2022/05/10 05:48:27;;;;;;;6.38;3.63;;;;;;;15.25;100.00;100960.94;6017174;29;20833;-93
2022/05/10 05:51:29;;;;;;;6.40;3.30;;;;;;;15.44;99.49;100959.22;6021272;29;20499;-92
2022/05/10 05:54:34;;;;;;;9.80;4.15;;;;;;;15.60;98.76;100954.22;6014749;29;20291;-92
2022/05/10 05:57:36;;;;;;;4.43;3.35;;;;;;;15.78;97.69;100956.94;6007991;29;20053;-92
2022/05/10 06:00:39;;;;;;;6.00;3.95;;;;;;;15.92;97.94;100953.00;6012894;29;20053;-92
2022/05/10 06:03:47;;;;;;;5.38;3.38;;;;;;;16.03;97.54;100950.19;6031971;29;20097;-93
2022/05/10 06:06:50;;;;;;;5.05;3.22;;;;;;;16.13;96.90;100939.69;6020380;29;20082;-92
2022/05/10 06:09:51;;;;;;;6.18;3.60;;;;;;;16.18;96.92;100937.47;6034892;29;20047;-92
2022/05/10 06:12:53;;;;;;;5.40;3.50;;;;;;;16.28;96.59;100932.19;6020894;29;20041;-93
2022/05/10 06:15:55;;;;;;;8.10;3.65;;;;;;;16.33;96.67;100943.00;6024686;29;20065;-92
2022/05/10 06:18:58;;;;;;;5.05;3.50;;;;;;;16.38;97.23;100945.19;6018190;29;20046;-93
2022/05/10 06:22:00;;;;;;;4.93;3.35;;;;;;;16.45;95.81;100949.66;6027703;29;20492;-92
2022/05/10 06:25:04;;;;;;;6.00;3.90;;;;;;;16.58;94.00;100941.44;6031641;29;20037;-93
2022/05/10 06:28:07;;;;;;;6.05;3.78;;;;;;;16.68;94.67;100943.97;6022841;29;20037;-92
2022/05/10 06:31:10;;;;;;;6.75;3.75;;;;;;;16.79;94.00;100933.28;6032495;29;20066;-92
2022/05/10 06:34:13;;;;;;;6.00;3.15;;;;;;;16.97;94.34;100941.94;6010615;29;20037;-93
2022/05/10 06:40:42;;;;;;;5.03;3.30;;;;;;;17.43;88.90;100936.50;6031910;29;20781;-93
2022/05/10 06:43:43;;;;;;;6.18;3.22;;;;;;;17.69;84.81;100939.09;6025008;29;20053;-93
2022/05/10 06:46:52;;;;;;;7.97;3.55;;;;;;;17.95;83.07;100928.56;6017045;29;20060;-92
2022/05/10 06:49:54;;;;;;;4.32;3.10;;;;;;;18.18;81.63;100920.91;6013160;29;20193;-93
2022/05/10 06:52:59;;;;;;;3.63;3.00;;;;;;;18.47;78.45;100930.13;6029960;29;20053;-93
2022/05/10 06:56:03;;;;;;;8.32;3.35;;;;;;;18.77;75.74;100927.88;6026544;29;20049;-92
2022/05/10 06:59:05;;;;;;;5.97;2.92;;;;;;;19.06;75.14;100917.66;6009050;29;20061;-93
2022/05/10 07:02:07;;;;;;;5.03;3.30;;;;;;;19.33;71.21;100920.88;6008862;29;20479;-92
2022/05/10 07:05:10;;;;;;;5.53;3.33;;;;;;;19.66;69.85;100920.75;6011419;29;20045;-92
2022/05/10 07:08:13;;;;;;;4.75;3.65;;;;;;;20.06;69.52;100903.97;6016781;29;20174;-94
2022/05/10 07:11:15;;;;;;;4.30;3.15;;;;;;;20.33;66.66;100907.91;6030228;29;20681;-94
2022/05/10 07:14:16;;;;;;;6.22;3.47;;;;;;;20.49;65.00;100903.50;6019153;29;20050;-94
2022/05/10 07:17:19;;;;;;;5.20;3.67;;;;;;;20.56;65.81;100904.47;6018411;29;20050;-93
2022/05/10 07:20:22;;;;;;;3.65;3.22;;;;;;;20.64;64.63;100902.59;6022624;29;20042;-94
2022/05/10 07:23:32;;;;;;;6.00;3.53;;;;;;;20.75;65.83;100903.97;6017369;29;20052;-93
2022/05/10 07:26:40;;;;;;;7.00;3.40;;;;;;;20.79;63.96;100902.59;6024286;29;20050;-94
2022/05/10 07:29:43;;;;;;;4.90;3.45;;;;;;;20.71;67.52;100901.88;6015711;29;20505;-93
2022/05/10 07:32:45;;;;;;;5.38;3.58;;;;;;;20.61;68.08;100902.94;6016199;29;20974;-93
2022/05/10 07:39:12;;;;;;;6.03;3.10;;;;;;;20.33;66.97;100907.09;6006928;29;20041;-93
2022/05/10 07:42:14;;;;;;;6.55;3.60;;;;;;;20.31;68.97;100899.38;6017505;29;20056;-90
2022/05/10 07:45:16;;;;;;;6.57;3.92;;;;;;;20.40;67.23;100908.03;6024257;29;20041;-90
2022/05/10 07:48:19;;;;;;;5.40;3.55;;;;;;;20.55;66.71;100910.75;6029775;29;20624;-90
2022/05/10 07:51:21;;;;;;;5.30;3.67;;;;;;;20.66;62.89;100905.03;6028808;29;20057;-90
2022/05/10 07:54:24;;;;;;;6.72;3.45;;;;;;;20.77;64.13;100909.88;6012927;29;20167;-90
2022/05/10 07:57:26;;;;;;;5.22;3.53;;;;;;;20.79;63.18;100905.25;6016248;29;20049;-89
2022/05/10 08:00:28;;;;;;;5.63;3.47;;;;;;;20.73;61.46;100905.97;6015362;29;20097;-89
2022/05/10 08:03:31;;;;;;;4.32;3.50;;;;;;;20.65;63.41;100906.03;6019841;29;20774;-90
2022/05/10 08:06:33;;;;;;;6.60;3.75;;;;;;;20.72;62.58;100900.88;6012658;29;20049;-90
2022/05/10 08:09:35;;;;;;;4.05;3.50;;;;;;;20.83;63.66;100896.00;5998765;29;20065;-90
2022/05/10 08:12:38;;;;;;;7.35;3.55;;;;;;;20.95;63.31;100896.38;6014022;29;20049;-90
2022/05/10 08:15:42;;;;;;;5.20;3.38;;;;;;;21.03;62.04;100901.56;6011440;29;20409;-90
2022/05/10 08:18:48;;;;;;;4.75;3.50;;;;;;;21.16;60.57;100906.19;6011478;29;20048;-90
2022/05/10 08:21:52;;;;;;;6.07;3.80;;;;;;;21.25;61.61;100904.28;6021701;29;20053;-90
2022/05/10 08:24:54;;;;;;;5.15;3.30;;;;;;;21.34;63.66;100895.31;6016480;29;20193;-90
2022/05/10 08:27:56;;;;;;;5.30;3.95;;;;;;;21.42;65.19;100894.44;6006122;29;20045;-90
2022/05/10 08:30:58;;;;;;;3.95;3.40;;;;;;;21.57;62.65;100899.66;6005306;29;20140;-90
2022/05/10 08:34:01;;;;;;;4.00;3.60;;;;;;;21.80;61.39;100896.88;6017096;29;20802;-89
2022/05/10 08:37:04;;;;;;;4.25;3.47;;;;;;;22.18;61.20;100896.66;5996181;29;20448;-90
2022/05/10 08:40:17;;;;;;;4.13;3.55;;;;;;;22.50;61.23;100898.81;6019003;29;20060;-90
2022/05/10 08:43:24;;;;;;;4.35;3.50;;;;;;;22.81;59.06;100892.34;6025806;29;20422;-90
2022/05/10 08:46:32;;;;;;;7.47;4.30;;;;;;;23.11;57.81;100892.16;6022248;29;20045;-90
2022/05/10 08:49:48;;;;;;;5.80;4.13;;;;;;;23.21;53.63;100889.97;6017039;29;20066;-90
2022/05/10 08:52:53;;;;;;;6.45;3.60;;;;;;;23.20;55.13;100889.19;6012568;29;20183;-90
2022/05/10 08:56:12;;;;;;;6.32;3.28;;;;;;;23.10;56.57;100882.59;6000710;29;20045;-90
2022/05/10 08:59:34;;;;;;;4.63;3.85;;;;;;;22.98;56.79;100875.25;6002650;29;20523;-90
2022/05/10 09:02:44;;;;;;;4.53;3.97;;;;;;;22.90;57.21;100872.69;6024033;29;20057;-90
2022/05/10 09:05:46;;;;;;;4.45;4.05;;;;;;;22.96;57.12;100869.31;5998723;29;20088;-90
2022/05/10 09:09:02;;;;;;;5.05;3.92;;;;;;;23.02;58.57;100865.09;6002237;29;20060;-90
2022/05/10 09:12:24;;;;;;;5.00;4.35;;;;;;;23.26;57.30;100855.06;6017189;29;20419;-90
2022/05/10 09:15:32;;;;;;;5.10;4.03;;;;;;;23.48;56.83;100864.50;6020707;29;20045;-91
2022/05/10 09:18:52;;;;;;;7.80;4.07;;;;;;;23.63;57.18;100864.34;6018628;29;20045;-90
2022/05/10 09:21:55;;;;;;;8.77;4.53;;;;;;;23.65;52.93;100862.28;6019579;29;20385;-90
2022/05/10 09:24:57;;;;;;;4.68;4.10;;;;;;;23.51;53.30;100853.53;6021936;29;20049;-90
2022/05/10 09:28:36;;;;;;;11.65;4.30;;;;;;;23.42;55.77;100852.88;6016152;29;20471;-89
2022/05/10 09:35:14;;;;;;;5.15;4.15;;;;;;;22.81;55.17;100842.22;6021665;29;20041;-89
2022/05/10 09:38:17;;;;;;;6.30;4.40;;;;;;;22.60;59.02;100839.63;6018569;29;20268;-90
2022/05/10 09:41:32;;;;;;;5.55;4.50;;;;;;;22.66;56.65;100839.69;6018563;29;20045;-90
2022/05/10 09:44:35;;;;;;;5.78;4.13;;;;;;;22.87;56.89;100841.41;6016805;29;20037;-90
2022/05/10 09:47:38;;;;;;;4.72;4.32;;;;;;;23.16;55.56;100832.47;6017998;29;20048;-89
2022/05/10 09:50:44;;;;;;;5.20;4.25;;;;;;;23.55;56.42;100828.34;6009643;29;20563;-89
2022/05/10 09:53:46;;;;;;;6.30;4.45;;;;;;;23.89;54.43;100823.16;6015412;29;20581;-89
2022/05/10 09:56:56;;;;;;;8.15;4.70;;;;;;;24.15;51.71;100828.47;6019746;29;20053;-89
2022/05/10 09:59:59;;;;;;;6.57;4.00;;;;;;;24.38;51.29;100817.44;6017818;29;20514;-89
2022/05/10 10:03:04;;;;;;;6.03;4.13;;;;;;;24.60;52.82;100818.06;6011823;29;20133;-89
2022/05/10 10:06:24;;;;;;;4.72;3.92;;;;;;;24.64;50.56;100811.31;6009330;29;20397;-89
2022/05/10 10:09:32;;;;;;;5.22;4.00;;;;;;;24.75;53.09;100817.03;6014281;29;20041;-90
2022/05/10 10:12:34;;;;;;;6.45;3.53;;;;;;;24.86;51.50;100819.00;6017987;29;20193;-90
2022/05/10 10:15:46;;;;;;;5.70;4.35;;;;;;;24.95;51.94;100809.81;6009654;29;20050;-89
2022/05/10 10:18:52;;;;;;;5.80;4.30;;;;;;;25.12;50.63;100802.22;5994167;29;20485;-89
2022/05/10 10:22:08;;;;;;;5.35;4.40;;;;;;;25.27;48.13;100799.34;6020900;29;20052;-89
2022/05/10 10:25:18;;;;;;;5.95;4.07;;;;;;;25.27;48.31;100804.63;6009974;29;20202;-90
2022/05/10 10:28:34;;;;;;;7.28;4.15;;;;;;;25.34;49.79;100795.63;6018349;29;20598;-89
2022/05/10 10:31:42;;;;;;;5.32;4.68;;;;;;;25.25;49.17;100782.84;6023187;29;20574;-89
2022/05/10 10:35:06;;;;;;;6.15;4.63;;;;;;;25.28;50.30;100788.50;6019460;29;20341;-89
2022/05/10 10:38:22;;;;;;;4.65;4.20;;;;;;;25.49;47.26;100776.78;6013385;29;20412;-88
2022/05/10 10:42:16;;;;;;;5.50;4.30;;;;;;;25.78;48.47;100780.66;5995047;29;20477;-90
2022/05/10 10:45:29;;;;;;;7.55;4.20;;;;;;;25.75;46.89;100774.97;6011822;29;20363;-90
2022/05/10 10:48:47;;;;;;;5.15;4.20;;;;;;;25.80;46.49;100772.50;6013501;29;20041;-93
2022/05/10 10:51:50;;;;;;;6.32;4.00;;;;;;;25.91;50.47;100768.34;6008766;29;20404;-90
2022/05/10 10:54:52;;;;;;;4.70;4.20;;;;;;;25.96;47.93;100764.03;6011388;29;20101;-90
2022/05/10 10:58:23;;;;;;;6.55;4.35;;;;;;;26.11;43.71;100754.91;6009393;29;20057;-90
2022/05/10 11:01:36;;;;;;;4.85;4.22;;;;;;;26.32;48.80;100753.69;6016381;29;20036;-90
2022/05/10 11:05:09;;;;;;;4.40;4.00;;;;;;;26.35;45.34;100754.06;6013572;29;20524;-90
2022/05/10 11:08:38;;;;;;;6.50;4.40;;;;;;;26.22;46.74;100743.59;6008420;29;20102;-90
2022/05/10 11:11:51;;;;;;;5.63;4.53;;;;;;;26.38;47.18;100735.06;6019218;29;20052;-90
2022/05/10 11:15:36;;;;;;;5.88;4.50;;;;;;;26.61;45.75;100733.63;6027660;29;20066;-89
2022/05/10 11:18:58;;;;;;;6.90;4.25;;;;;;;26.83;42.62;100729.47;6019482;29;20100;-89
2022/05/10 11:22:40;;;;;;;6.40;4.13;;;;;;;26.75;43.33;100726.28;6029998;29;20046;-90
2022/05/10 11:25:58;;;;;;;7.57;4.38;;;;;;;26.82;42.87;100722.50;6027239;29;20053;-90
2022/05/10 11:29:23;;;;;;;5.28;4.15;;;;;;;26.96;41.71;100717.03;5999218;29;20132;-89
2022/05/10 11:33:02;;;;;;;6.40;4.50;;;;;;;27.07;40.73;100711.75;6016024;29;20041;-90
2022/05/10 11:36:27;;;;;;;7.45;3.58;;;;;;;27.21;37.25;100698.31;6021135;29;20049;-91
2022/05/10 11:39:32;;;;;;;4.55;3.42;;;;;;;27.00;40.13;100708.38;6021114;29;20049;-90
2022/05/10 11:43:12;;;;;;;6.43;3.88;;;;;;;26.88;42.15;100698.72;6025430;29;20222;-90
2022/05/10 11:46:40;;;;;;;4.30;3.60;;;;;;;27.12;40.99;100673.06;5998520;29;20049;-90
2022/05/10 11:50:14;;;;;;;5.30;3.70;;;;;;;27.73;36.44;100682.56;6028283;29;20041;-91
2022/05/10 11:53:52;;;;;;;8.85;4.07;;;;;;;27.93;37.69;100676.91;6018422;29;20068;-90
2022/05/10 11:56:55;;;;;;;8.70;3.75;;;;;;;28.14;36.81;100670.97;6001883;29;20049;-90
2022/05/10 12:00:33;;;;;;;4.00;3.65;;;;;;;27.70;37.62;100680.34;6026901;29;20124;-90
2022/05/10 12:03:49;;;;;;;4.20;3.78;;;;;;;27.51;37.15;100679.66;6019011;29;20151;-89
2022/05/10 12:06:52;;;;;;;6.05;4.05;;;;;;;27.20;36.12;100672.75;6007614;29;20116;-91
2022/05/10 12:10:03;;;;;;;6.88;4.35;;;;;;;26.85;40.11;100668.13;6014633;29;20048;-91
2022/05/10 12:24:11;;;;;;;4.75;4.03;;;;;;;28.24;36.06;100643.75;6014199;29;20045;-90
2022/05/10 12:27:15;;;;;;;4.45;4.05;;;;;;;28.30;38.47;100645.47;6024767;29;20491;-90
2022/05/10 12:30:32;;;;;;;5.97;3.55;;;;;;;28.88;35.87;100637.53;6005476;29;20351;-91
2022/05/10 12:33:36;;;;;;;5.15;3.45;;;;;;;29.57;35.53;100638.13;6011695;29;20113;-91
2022/05/10 12:36:43;;;;;;;4.55;3.63;;;;;;;29.81;32.65;100630.75;6026530;29;20056;-92
2022/05/10 12:39:56;;;;;;;5.30;3.58;;;;;;;29.48;34.19;100631.59;6019544;29;20053;-91
2022/05/10 12:43:49;;;;;;;4.00;3.70;;;;;;;29.26;33.21;100622.72;6014079;29;20042;-91
2022/05/10 12:47:14;;;;;;;5.15;3.38;;;;;;;28.87;35.20;100615.41;5992922;29;20054;-91
2022/05/10 12:50:54;;;;;;;5.32;3.88;;;;;;;28.67;33.83;100612.34;6022298;29;20507;-91
2022/05/10 12:54:15;;;;;;;5.82;3.85;;;;;;;28.48;35.82;100606.44;6003851;29;20429;-90
2022/05/10 12:57:42;;;;;;;4.88;4.05;;;;;;;28.19;35.29;100600.25;5997540;29;20053;-91
2022/05/10 13:00:58;;;;;;;6.05;3.95;;;;;;;28.21;35.63;100598.16;5994093;29;20583;-91
2022/05/10 13:04:21;;;;;;;4.88;3.50;;;;;;;28.26;33.90;100593.75;5994703;29;20053;-91
2022/05/10 13:07:50;;;;;;;3.78;3.40;;;;;;;28.14;35.40;100577.81;6015930;29;20038;-91
2022/05/10 13:10:54;;;;;;;13.65;5.70;;;;;;;28.13;35.51;100581.53;5998440;29;20157;-91
2022/05/10 13:14:00;;;;;;;9.95;4.97;;;;;;;28.21;35.29;100576.88;6007544;29;21501;-90
2022/05/10 13:17:03;;;;;;;4.20;3.58;;;;;;;28.01;32.89;100569.28;5994987;29;20073;-91
2022/05/10 13:20:10;;;;;;;3.90;3.35;;;;;;;27.87;34.01;100564.22;6008391;29;20080;-91
2022/05/10 13:23:12;;;;;;;3.95;3.40;;;;;;;27.88;34.48;100563.19;6010016;29;20056;-90
2022/05/10 13:26:15;;;;;;;4.00;3.28;;;;;;;27.87;35.00;100553.56;6004664;29;20041;-91
2022/05/10 13:29:17;;;;;;;3.78;3.47;;;;;;;28.02;36.14;100547.75;5989332;29;20057;-90
2022/05/10 13:32:28;;;;;;;4.97;3.40;;;;;;;28.20;34.08;100551.28;6001109;29;20062;-90
2022/05/10 13:35:33;;;;;;;3.67;3.35;;;;;;;28.43;35.10;100537.09;6012214;29;20062;-90
2022/05/10 13:38:54;;;;;;;4.75;3.13;;;;;;;28.92;34.36;100532.88;6002310;29;20049;-90
2022/05/10 13:42:03;;;;;;;3.90;3.15;;;;;;;29.32;31.00;100526.56;6005074;29;20042;-90
2022/05/10 13:45:06;;;;;;;4.55;3.08;;;;;;;29.35;30.74;100528.72;6005235;29;20041;-90
2022/05/10 13:48:12;;;;;;;3.70;3.05;;;;;;;28.99;30.69;100524.69;6008381;29;20101;-90
2022/05/10 13:51:37;;;;;;;4.95;3.17;;;;;;;28.98;31.69;100518.56;6000790;29;20341;-90
2022/05/10 13:54:39;;;;;;;3.53;3.28;;;;;;;28.77;32.13;100530.78;5998899;29;20053;-90
2022/05/10 13:57:52;;;;;;;3.97;3.22;;;;;;;28.47;31.03;100514.25;6007159;29;21513;-91
2022/05/10 14:00:54;;;;;;;5.00;3.60;;;;;;;28.28;33.53;100511.00;6023109;29;20052;-90
2022/05/10 14:04:11;;;;;;;3.50;3.10;;;;;;;28.08;33.39;100512.22;5992007;29;20145;-91
2022/05/10 14:07:25;;;;;;;6.30;3.50;;;;;;;27.81;32.74;100513.78;6008431;29;20041;-90
2022/05/10 14:10:34;;;;;;;3.65;3.33;;;;;;;27.65;34.38;100513.50;6000593;29;20287;-90
2022/05/10 14:13:42;;;;;;;4.00;3.58;;;;;;;27.62;34.95;100513.13;6012943;29;20118;-91
2022/05/10 14:16:45;;;;;;;3.55;3.25;;;;;;;27.75;33.98;100510.22;6012024;29;20671;-93
2022/05/10 14:19:49;;;;;;;4.93;3.45;;;;;;;27.88;33.76;100498.53;6017824;29;20074;-92
2022/05/10 14:22:55;;;;;;;5.70;3.58;;;;;;;27.80;33.63;100504.19;6008650;29;20665;-91
2022/05/10 14:26:02;;;;;;;4.43;3.85;;;;;;;27.67;32.88;100499.94;6008818;29;20045;-91
2022/05/10 14:29:20;;;;;;;4.07;3.10;;;;;;;27.79;32.25;100491.94;6010580;29;20080;-91
2022/05/10 14:32:26;;;;;;;4.25;3.10;;;;;;;27.88;32.92;100495.88;6015257;29;20510;-90
2022/05/10 14:35:33;;;;;;;4.47;3.35;;;;;;;28.08;33.03;100477.63;5992770;29;20050;-91
2022/05/10 14:38:39;;;;;;;5.13;3.35;;;;;;;28.20;34.28;100487.41;6010093;29;20132;-90
2022/05/10 14:41:44;;;;;;;3.35;3.08;;;;;;;28.21;33.64;100481.84;6015651;29;20065;-90
2022/05/10 14:44:49;;;;;;;3.72;3.30;;;;;;;28.05;34.92;100470.13;6001475;29;20057;-91
2022/05/10 14:47:58;;;;;;;3.50;3.20;;;;;;;27.88;33.22;100463.94;6016965;29;20064;-90
2022/05/10 14:51:38;;;;;;;5.50;3.30;;;;;;;27.86;35.82;100460.72;6021961;29;20136;-90
2022/05/10 14:54:41;;;;;;;3.50;3.20;;;;;;;28.00;36.25;100456.72;6024970;29;20362;-90
2022/05/10 14:57:49;;;;;;;4.18;3.28;;;;;;;28.02;33.67;100456.47;6026167;29;20052;-91
2022/05/10 15:01:29;;;;;;;6.13;3.67;;;;;;;27.98;34.85;100460.66;6030186;29;20220;-90
2022/05/10 15:04:33;;;;;;;4.28;3.50;;;;;;;27.53;33.73;100451.53;6021890;29;20041;-90
2022/05/10 15:07:35;;;;;;;4.70;3.60;;;;;;;27.20;35.40;100444.19;6003711;29;20041;-90
2022/05/10 15:10:39;;;;;;;3.47;3.17;;;;;;;26.99;36.26;100435.75;6007034;29;20061;-90